Dongola, Illinois
Current Conditions -  °F | °C
As of 11:15 PM on Saturday 25 Oct 2014 (Local Time) from KCIR Reporting Station
Moderate Fog Moderate Fog  
Wind Chill: 59°   Ceiling: 500
Heat Index: 59°   Visibility: 0.5mi
Dew Point: 56°   Wind: 0mph
Humidity: 91%   Direction: NA
Pressure: 30.01"   Gusts: NA
Location:  37.36°N, 89.17°W
Report Text: KCIR 260415Z AUTO 00000KT 1/2SM FG VV005 15/14 A3001 RMK AO2 T01500135
Loading
Personal Weather Stations






























Interactive Weather Map
Tropical Storm Tracking
New forecast layout! Learn more

10-Day Weather Forecast

Advertisements
Track Severe Weather on mobile